Terminal Aerodrome Forecast
Issued by NWS El Paso, TX

Home | Current Version | Previous Version | Text Only | Print | Product List | Glossary On
Versions: 1 2 3 4 5 6 7 8 9 10 11 12 13 14 15 16 17 18
000
FTUS44 KEPZ 212300
TAFELP
TAF
KELP 212331Z 2200/2224 10008KT P6SM VCSH SCT050 BKN080
     FM220400 04008KT P6SM FEW050 SCT100
     FM220900 03006KT P6SM FEW015 BKN040
     FM221800 VRB04KT P6SM FEW060 SCT250=

USA.gov is the U.S. government's official web portal to all federal, state and local government web resources and services.